createdAt,value
2023-04-23T00:03:28.225Z,28
2023-04-23T00:09:21.716Z,32.2
2023-04-23T00:15:13.677Z,30.3
2023-04-23T00:21:05.056Z,29.3
2023-04-23T00:26:55.700Z,28.8
2023-04-23T00:32:48.028Z,28.2
2023-04-23T00:38:23.325Z,27.7
2023-04-23T00:44:14.685Z,27.1
2023-04-23T00:50:06.662Z,29.6
2023-04-23T00:55:58.555Z,31.8
2023-04-23T01:01:48.787Z,29.9
2023-04-23T01:07:42.000Z,29.1
2023-04-23T01:13:32.910Z,28.6
2023-04-23T01:19:09.182Z,28.1
2023-04-23T01:25:00.441Z,27.5
2023-04-23T01:30:51.910Z,26.9
2023-04-23T01:36:43.597Z,30.9
2023-04-23T01:42:34.971Z,31.1
2023-04-23T01:48:29.539Z,29.6
2023-04-23T01:54:20.746Z,29
2023-04-23T01:59:55.829Z,28.4
2023-04-23T02:05:49.296Z,27.9
2023-04-23T02:11:40.779Z,27.3
2023-04-23T02:17:32.871Z,27.3
2023-04-23T02:23:25.041Z,32.1
2023-04-23T02:29:16.569Z,30.3
2023-04-23T02:35:08.732Z,27.9
2023-04-23T02:40:59.847Z,25.1
2023-04-23T02:46:51.111Z,24.1
2023-04-23T02:52:42.730Z,23.6
2023-04-23T02:58:34.510Z,23
2023-04-23T03:04:28.075Z,22.9
2023-04-23T03:10:03.561Z,29.5
2023-04-23T03:15:55.430Z,31.6
2023-04-23T03:21:46.905Z,29.8
2023-04-23T03:27:40.118Z,25.9
2023-04-23T03:33:31.701Z,24.9
2023-04-23T03:39:23.471Z,23.8
2023-04-23T03:44:59.732Z,23.5
2023-04-23T03:50:35.572Z,22.9
2023-04-23T03:56:11.692Z,23.1
2023-04-23T04:02:02.810Z,30.9
2023-04-23T04:07:57.844Z,30.7
2023-04-23T04:13:49.041Z,29.4
2023-04-23T04:19:42.906Z,25.3
2023-04-23T04:25:33.780Z,24.4
2023-04-23T04:31:25.115Z,23.6
2023-04-23T04:37:16.943Z,23.1
2023-04-23T04:43:08.472Z,22.9
2023-04-23T04:49:00.385Z,22.7
2023-04-23T04:54:51.961Z,31
2023-04-23T05:00:27.675Z,30.9
2023-04-23T05:06:20.947Z,29.6
2023-04-23T05:12:14.153Z,28.9
2023-04-23T05:18:05.771Z,28.4
2023-04-23T05:23:57.604Z,27.9
2023-04-23T05:29:49.519Z,27.3
2023-04-23T05:35:47.392Z,29.9
2023-04-23T05:41:40.408Z,31.7
2023-04-23T05:47:32.520Z,29.8
2023-04-23T05:53:26.116Z,29.1
2023-04-23T05:59:17.557Z,28.6
2023-04-23T06:04:58.367Z,28.1
2023-04-23T06:10:52.145Z,27.5
2023-04-23T06:16:45.263Z,29.2
2023-04-23T06:22:37.006Z,32.1
2023-04-23T06:28:28.797Z,30.1
2023-04-23T06:34:20.609Z,29.3
2023-04-23T06:40:22.487Z,28.7
2023-04-23T06:46:14.256Z,28.1
2023-04-23T06:52:06.421Z,27.6
2023-04-23T06:57:58.426Z,29.6
2023-04-23T07:03:52.169Z,32.1
2023-04-23T07:09:44.375Z,29.9
2023-04-23T07:15:35.789Z,29.3
2023-04-23T07:21:27.070Z,28.7
2023-04-23T07:27:17.985Z,28.1
2023-04-23T07:33:09.624Z,27.6
2023-04-23T07:39:01.287Z,31
2023-04-23T07:44:55.542Z,31.5
2023-04-23T07:50:47.951Z,29.8
2023-04-23T07:56:24.247Z,29.2
2023-04-23T08:02:18.137Z,28.6
2023-04-23T08:08:12.596Z,28.1
2023-04-23T08:14:04.092Z,27.5
2023-04-23T08:20:11.457Z,32.3
2023-04-23T08:26:03.421Z,31.1
2023-04-23T08:31:55.772Z,30.1
2023-04-23T08:37:43.975Z,29.4
2023-04-23T08:43:20.596Z,28.8
2023-04-23T08:48:57.147Z,28.2
2023-04-23T08:54:48.361Z,27.6
2023-04-23T09:00:25.114Z,32.1
2023-04-23T09:06:03.677Z,31.4
2023-04-23T09:11:57.661Z,30.2
2023-04-23T09:17:48.294Z,29.6
2023-04-23T09:23:23.959Z,28.9
2023-04-23T09:29:15.732Z,28.3
2023-04-23T09:34:52.584Z,27.6
2023-04-23T09:40:28.369Z,27.1
2023-04-23T09:46:20.840Z,26.6
2023-04-23T09:51:57.604Z,26.1
2023-04-23T09:57:49.913Z,25.6
2023-04-23T10:03:50.492Z,25.2
2023-04-23T10:11:20.635Z,24.8
2023-04-23T10:17:55.944Z,24.4
2023-04-23T10:23:58.620Z,24.1
2023-04-23T10:30:06.585Z,23.9
2023-04-23T10:36:28.148Z,23.6
2023-04-23T10:42:05.406Z,23.4
2023-04-23T10:48:07.421Z,23.3
2023-04-23T10:54:59.727Z,23.1
2023-04-23T11:00:50.806Z,22.9
2023-04-23T11:06:46.917Z,22.8
2023-04-23T11:12:46.132Z,22.7
2023-04-23T11:18:24.666Z,22.6
2023-04-23T11:24:18.227Z,22.5
2023-04-23T11:30:09.582Z,22.4
2023-04-23T11:36:11.241Z,22.3
2023-04-23T11:41:47.734Z,22.3
2023-04-23T11:47:08.689Z,22.1
2023-04-23T11:52:45.867Z,22.1
2023-04-23T11:58:39.262Z,22.1
2023-04-23T12:04:32.224Z,22
2023-04-23T12:10:33.261Z,21.9
2023-04-23T12:16:10.949Z,21.9
2023-04-23T12:22:02.812Z,21.9
2023-04-23T12:27:54.813Z,21.9
2023-04-23T12:33:46.717Z,21.8
2023-04-23T12:39:38.711Z,21.8
2023-04-23T12:45:29.639Z,21.8
2023-04-23T12:51:21.832Z,21.8
2023-04-23T12:57:13.794Z,21.7
2023-04-23T13:03:06.469Z,21.7
2023-04-23T13:09:00.073Z,21.6
2023-04-23T13:14:36.776Z,21.6
2023-04-23T13:20:29.391Z,21.6
2023-04-23T13:26:23.256Z,21.6
2023-04-23T13:31:59.978Z,21.6
2023-04-23T13:37:35.606Z,21.6
2023-04-23T13:43:41.506Z,21.5
2023-04-23T13:49:33.819Z,21.5
2023-04-23T13:55:42.102Z,21.6
2023-04-23T14:01:31.098Z,21.4
2023-04-23T14:07:08.896Z,21.5
2023-04-23T14:12:46.151Z,21.5
2023-04-23T14:18:22.474Z,21.5
2023-04-23T14:24:17.701Z,21.4
2023-04-23T14:30:24.000Z,21.4
2023-04-23T14:36:30.962Z,21.4
2023-04-23T14:42:22.441Z,21.4
2023-04-23T14:48:26.133Z,21.4
2023-04-23T14:54:02.340Z,21.4
2023-04-23T14:59:53.571Z,21.4
2023-04-23T15:05:48.963Z,21.4
2023-04-23T15:11:40.704Z,21.3
2023-04-23T15:17:43.647Z,21.3
2023-04-23T15:23:35.448Z,21.3
2023-04-23T15:29:27.513Z,21.3
2023-04-23T15:35:04.460Z,21.3
2023-04-23T15:40:56.773Z,21.3
2023-04-23T15:46:48.362Z,21.3
2023-04-23T15:52:40.080Z,21.3
2023-04-23T15:58:32.721Z,21.3
2023-04-23T16:04:43.359Z,21.3
2023-04-23T16:10:36.792Z,21.3
2023-04-23T16:16:28.686Z,21.3
2023-04-23T16:22:21.854Z,21.3
2023-04-23T16:28:13.888Z,21.3
2023-04-23T16:34:26.096Z,21.3
2023-04-23T16:40:17.383Z,21.3
2023-04-23T16:46:09.450Z,21.3
2023-04-23T16:52:02.995Z,21.3
2023-04-23T16:57:56.576Z,21.3
2023-04-23T17:03:50.246Z,21.3
2023-04-23T17:09:44.077Z,21.3
2023-04-23T17:15:21.881Z,21.3
2023-04-23T17:20:59.433Z,21.3
2023-04-23T17:26:52.337Z,21.3
2023-04-23T17:32:46.115Z,21.3
2023-04-23T17:38:45.619Z,21.2
2023-04-23T17:44:38.889Z,21.2
2023-04-23T17:50:35.004Z,21.3
2023-04-23T17:56:31.284Z,21.2
2023-04-23T18:02:11.591Z,21.2
2023-04-23T18:08:09.372Z,21.2
2023-04-23T18:13:48.241Z,21.2
2023-04-23T18:19:26.329Z,21.2
2023-04-23T18:30:28.345Z,21.2
2023-04-23T18:36:19.230Z,21.2
2023-04-23T18:42:51.570Z,21.2
2023-04-23T18:48:30.240Z,21.2
2023-04-23T18:54:11.385Z,21.2
2023-04-23T18:59:49.209Z,21.2
2023-04-23T19:06:10.035Z,21.2
2023-04-23T19:12:03.501Z,21.2
2023-04-23T19:17:25.977Z,21.2
2023-04-23T19:23:19.585Z,21.2
2023-04-23T19:28:57.641Z,21.2
2023-04-23T19:34:51.220Z,21.2
2023-04-23T19:40:29.336Z,21.2
2023-04-23T19:46:07.113Z,21.2
2023-04-23T19:51:45.434Z,21.2
2023-04-23T19:57:25.158Z,21.2
2023-04-23T20:03:19.263Z,21.2
2023-04-23T20:42:28.626Z,21.1
2023-04-23T20:48:04.575Z,21.1
2023-04-23T20:59:32.105Z,20.6
2023-04-23T21:05:25.791Z,30.1
2023-04-23T21:11:17.357Z,33.6
2023-04-23T21:17:09.271Z,33.1
2023-04-23T21:23:00.994Z,30.6
2023-04-23T21:28:54.874Z,29.8
2023-04-23T21:34:31.104Z,30.9
2023-04-23T21:40:22.597Z,34
2023-04-23T21:46:14.122Z,31.5
2023-04-23T21:52:06.261Z,30.1
2023-04-23T21:58:06.496Z,29.4
2023-04-23T22:04:26.765Z,27.6
2023-04-23T22:10:17.819Z,32.9
2023-04-23T22:16:37.117Z,32.5
2023-04-23T22:22:28.740Z,30.3
2023-04-23T22:28:18.961Z,29.6
2023-04-23T22:33:55.301Z,29
2023-04-23T22:39:47.296Z,27.3
2023-04-23T22:45:24.650Z,32.9
2023-04-23T22:51:01.746Z,32.4
2023-04-23T22:56:23.765Z,30.3
2023-04-23T23:01:59.633Z,29.6
2023-04-23T23:07:21.100Z,29
2023-04-23T23:13:12.053Z,28.5
2023-04-23T23:18:48.324Z,30.8
2023-04-23T23:24:39.520Z,34.3
2023-04-23T23:30:30.940Z,30.9
2023-04-23T23:36:22.253Z,29.9
2023-04-23T23:42:15.962Z,29.2
2023-04-23T23:48:08.341Z,28.6
2023-04-23T23:53:44.537Z,26.9
2023-04-23T23:59:20.975Z,32.8
